createdAt,value
2022-12-11T00:01:53.618Z,13.13
2022-12-11T00:04:22.345Z,10.55
2022-12-11T00:06:55.705Z,11.88
2022-12-11T00:09:24.745Z,12.02
2022-12-11T00:11:53.068Z,13.25
2022-12-11T00:14:21.635Z,11.63
2022-12-11T00:16:50.776Z,14.45
2022-12-11T00:19:20.041Z,10.23
2022-12-11T00:21:48.868Z,10.35
2022-12-11T00:24:18.446Z,16.70
2022-12-11T00:29:16.188Z,18.75
2022-12-11T00:31:44.732Z,14.40
2022-12-11T00:34:13.637Z,17.70
2022-12-11T00:36:41.807Z,11.53
2022-12-11T00:39:13.169Z,18.23
2022-12-11T00:41:43.151Z,11.93
2022-12-11T00:44:11.710Z,12.40
2022-12-11T00:46:40.155Z,11.20
2022-12-11T00:49:08.341Z,11.25
2022-12-11T00:51:36.927Z,14.85
2022-12-11T00:54:06.603Z,12.80
2022-12-11T00:56:35.554Z,12.45
2022-12-11T00:59:06.909Z,11.07
2022-12-11T01:01:35.671Z,15.57
2022-12-11T01:04:04.032Z,9.10
2022-12-11T01:06:32.699Z,19.45
2022-12-11T01:09:18.655Z,15.15
2022-12-11T01:11:47.224Z,17.13
2022-12-11T01:14:17.506Z,13.07
2022-12-11T01:16:46.054Z,15.20
2022-12-11T01:19:14.802Z,19.05
2022-12-11T01:21:43.091Z,17.60
2022-12-11T01:24:11.981Z,15.77
2022-12-11T01:26:40.784Z,12.07
2022-12-11T01:29:08.999Z,11.87
2022-12-11T01:31:38.880Z,17.52
2022-12-11T01:34:07.573Z,16.25
2022-12-11T01:36:35.866Z,18.38
2022-12-11T01:39:04.177Z,11.88
2022-12-11T01:44:06.767Z,10.63
2022-12-11T01:46:36.870Z,20.58
2022-12-11T01:49:10.410Z,14.35
2022-12-11T01:51:43.372Z,15.45
2022-12-11T01:54:14.865Z,8.38
2022-12-11T01:56:46.206Z,10.98
2022-12-11T01:59:19.577Z,15.80
2022-12-11T02:01:52.165Z,14.70
2022-12-11T02:04:22.906Z,10.55
2022-12-11T02:06:53.645Z,17.50
2022-12-11T02:09:25.978Z,9.48
2022-12-11T02:12:03.114Z,12.90
2022-12-11T02:14:39.609Z,9.07
2022-12-11T02:17:13.341Z,14.43
2022-12-11T02:19:54.443Z,9.93
2022-12-11T02:22:34.765Z,17.13
2022-12-11T02:25:11.372Z,14.32
2022-12-11T02:27:45.899Z,12.65
2022-12-11T02:30:17.766Z,25.20
2022-12-11T02:32:49.963Z,16.10
2022-12-11T02:35:22.525Z,12.48
2022-12-11T02:37:57.531Z,7.60
2022-12-11T02:40:30.975Z,11.13
2022-12-11T02:43:06.242Z,10.32
2022-12-11T02:45:37.137Z,13.48
2022-12-11T02:48:08.014Z,12.85
2022-12-11T02:50:40.617Z,13.32
2022-12-11T02:53:12.257Z,20.13
2022-12-11T02:55:43.202Z,17.65
2022-12-11T02:58:17.556Z,14.18
2022-12-11T03:00:48.317Z,14.02
2022-12-11T03:03:17.247Z,10.27
2022-12-11T03:05:46.650Z,13.20
2022-12-11T03:08:17.401Z,13.45
2022-12-11T03:10:46.635Z,12.95
2022-12-11T03:13:24.708Z,14.43
2022-12-11T03:16:06.024Z,15.63
2022-12-11T03:18:41.230Z,16.63
2022-12-11T03:21:15.688Z,14.10
2022-12-11T03:23:51.239Z,11.82
2022-12-11T03:26:21.443Z,13.90
2022-12-11T03:28:55.329Z,18.33
2022-12-11T03:31:28.865Z,17.83
2022-12-11T03:34:02.382Z,12.98
2022-12-11T03:36:36.026Z,16.05
2022-12-11T03:39:09.688Z,18.25
2022-12-11T03:41:40.834Z,17.15
2022-12-11T03:44:10.493Z,15.65
2022-12-11T03:46:41.992Z,13.90
2022-12-11T03:49:16.755Z,18.92
2022-12-11T03:51:47.189Z,16.17
2022-12-11T03:54:16.467Z,21.60
2022-12-11T03:56:47.638Z,19.75
2022-12-11T03:59:18.092Z,14.00
2022-12-11T04:01:47.736Z,22.35
2022-12-11T04:04:16.355Z,15.95
2022-12-11T04:06:44.972Z,13.25
2022-12-11T04:09:17.209Z,18.47
2022-12-11T04:11:45.766Z,20.38
2022-12-11T04:14:33.139Z,12.60
2022-12-11T04:17:02.912Z,21.00
2022-12-11T04:22:35.967Z,14.60
2022-12-11T04:25:06.826Z,19.00
2022-12-11T04:27:50.358Z,19.58
2022-12-11T04:30:22.052Z,19.98
2022-12-11T04:32:52.837Z,15.82
2022-12-11T04:35:21.802Z,16.67
2022-12-11T04:37:50.714Z,15.43
2022-12-11T04:40:20.816Z,17.67
2022-12-11T04:42:49.238Z,14.43
2022-12-11T04:45:17.726Z,21.80
2022-12-11T04:47:45.985Z,21.95
2022-12-11T04:50:17.530Z,14.50
2022-12-11T04:52:46.035Z,15.63
2022-12-11T04:55:14.853Z,16.45
2022-12-11T04:57:43.275Z,13.57
2022-12-11T05:00:14.050Z,17.88
2022-12-11T05:02:43.563Z,18.92
2022-12-11T05:05:14.065Z,16.63
2022-12-11T05:07:43.912Z,13.50
2022-12-11T05:10:12.447Z,17.40
2022-12-11T05:12:43.980Z,14.73
2022-12-11T05:15:12.711Z,16.23
2022-12-11T05:17:41.380Z,15.87
2022-12-11T05:20:10.846Z,14.50
2022-12-11T05:25:13.991Z,13.63
2022-12-11T05:27:42.518Z,18.85
2022-12-11T05:30:11.738Z,18.95
2022-12-11T05:32:40.214Z,11.43
2022-12-11T05:35:09.977Z,20.35
2022-12-11T05:37:38.566Z,12.65
2022-12-11T05:40:08.509Z,15.27
2022-12-11T05:42:38.526Z,14.85
2022-12-11T05:45:08.706Z,20.80
2022-12-11T05:47:39.447Z,16.13
2022-12-11T05:50:08.890Z,22.13
2022-12-11T05:52:37.105Z,15.52
2022-12-11T05:55:06.236Z,18.45
2022-12-11T05:57:34.548Z,17.42
2022-12-11T06:00:06.006Z,15.32
2022-12-11T06:02:36.346Z,17.60
2022-12-11T06:05:05.073Z,14.68
2022-12-11T06:07:33.704Z,18.45
2022-12-11T06:10:02.089Z,14.30
2022-12-11T06:12:31.159Z,15.10
2022-12-11T06:14:59.740Z,20.25
2022-12-11T06:17:29.385Z,19.92
2022-12-11T06:19:57.506Z,17.00
2022-12-11T06:22:27.145Z,15.98
2022-12-11T06:27:23.797Z,15.30
2022-12-11T06:29:52.881Z,18.52
2022-12-11T06:32:21.805Z,21.38
2022-12-11T06:34:51.977Z,13.75
2022-12-11T06:37:20.474Z,16.05
2022-12-11T06:39:48.575Z,27.73
2022-12-11T06:42:17.759Z,15.05
2022-12-11T06:44:46.130Z,19.83
2022-12-11T06:47:15.361Z,14.40
2022-12-11T06:49:43.672Z,16.30
2022-12-11T06:52:18.194Z,19.23
2022-12-11T06:54:47.391Z,16.85
2022-12-11T06:57:16.745Z,22.77
2022-12-11T06:59:49.421Z,22.88
2022-12-11T07:02:20.239Z,17.35
2022-12-11T07:04:54.907Z,18.35
2022-12-11T07:07:24.809Z,18.58
2022-12-11T07:09:53.306Z,12.68
2022-12-11T07:12:21.968Z,21.17
2022-12-11T07:14:51.726Z,19.67
2022-12-11T07:17:20.394Z,20.92
2022-12-11T07:19:48.524Z,24.77
2022-12-11T07:22:16.732Z,23.50
2022-12-11T07:24:47.426Z,18.83
2022-12-11T07:27:15.983Z,18.85
2022-12-11T07:29:46.096Z,22.50
2022-12-11T07:32:14.609Z,22.00
2022-12-11T07:34:47.225Z,23.52
2022-12-11T07:37:18.658Z,21.73
2022-12-11T07:39:49.140Z,20.83
2022-12-11T07:42:17.715Z,19.63
2022-12-11T07:44:45.926Z,22.38
2022-12-11T07:47:14.266Z,17.10
2022-12-11T07:49:42.492Z,15.13
2022-12-11T07:52:10.882Z,20.70
2022-12-11T07:54:40.007Z,21.23
2022-12-11T07:57:14.164Z,23.23
2022-12-11T07:59:42.901Z,12.50
2022-12-11T08:02:12.111Z,19.17
2022-12-11T08:04:42.029Z,24.02
2022-12-11T08:07:10.965Z,24.25
2022-12-11T08:09:39.747Z,29.25
2022-12-11T08:12:09.296Z,25.07
2022-12-11T08:14:37.728Z,18.65
2022-12-11T08:17:06.198Z,23.33
2022-12-11T08:19:34.897Z,21.85
2022-12-11T08:22:03.386Z,22.65
2022-12-11T08:24:32.021Z,19.35
2022-12-11T08:27:01.659Z,23.45
2022-12-11T08:32:00.509Z,24.67
2022-12-11T08:34:28.825Z,23.20
2022-12-11T08:36:57.386Z,32.45
2022-12-11T08:39:26.973Z,17.58
2022-12-11T08:41:56.094Z,22.52
2022-12-11T08:44:26.817Z,24.15
2022-12-11T08:46:57.626Z,17.83
2022-12-11T08:49:29.861Z,16.67
2022-12-11T08:52:01.106Z,23.48
2022-12-11T08:54:29.830Z,21.67
2022-12-11T08:56:58.553Z,14.10
2022-12-11T08:59:27.059Z,20.55
2022-12-11T09:01:57.690Z,23.85
2022-12-11T09:04:26.886Z,29.23
2022-12-11T09:06:57.708Z,31.52
2022-12-11T09:09:26.311Z,25.88
2022-12-11T09:11:54.820Z,22.75
2022-12-11T09:14:23.272Z,25.02
2022-12-11T09:16:51.716Z,33.30
2022-12-11T09:19:21.755Z,30.02
2022-12-11T09:21:50.545Z,24.13
2022-12-11T09:24:19.399Z,31.10
2022-12-11T09:26:48.424Z,15.27
2022-12-11T09:29:16.580Z,27.48
2022-12-11T09:31:46.403Z,26.63
2022-12-11T09:34:15.188Z,19.77
2022-12-11T09:36:45.682Z,22.58
2022-12-11T09:39:15.731Z,16.98
2022-12-11T09:41:54.013Z,24.67
2022-12-11T09:44:34.078Z,23.63
2022-12-11T09:47:02.844Z,24.95
2022-12-11T09:49:39.267Z,32.50
2022-12-11T09:52:15.305Z,30.27
2022-12-11T09:54:49.539Z,27.25
2022-12-11T09:57:30.689Z,28.98
2022-12-11T10:00:11.428Z,31.00
2022-12-11T10:02:57.154Z,17.30
2022-12-11T10:05:33.746Z,21.05
2022-12-11T10:08:13.802Z,25.85
2022-12-11T10:10:45.609Z,24.13
2022-12-11T10:13:26.259Z,32.20
2022-12-11T10:16:00.504Z,24.40
2022-12-11T10:18:31.322Z,21.27
2022-12-11T10:21:04.486Z,21.27
2022-12-11T10:23:39.782Z,22.45
2022-12-11T10:26:14.510Z,17.30
2022-12-11T10:28:43.203Z,24.77
2022-12-11T10:31:18.363Z,31.45
2022-12-11T10:33:57.003Z,18.80
2022-12-11T10:36:30.528Z,24.92
2022-12-11T10:39:00.529Z,23.15
2022-12-11T10:41:39.289Z,24.88
2022-12-11T10:44:17.417Z,20.70
2022-12-11T10:46:46.602Z,29.52
2022-12-11T10:49:26.198Z,27.52
2022-12-11T10:51:56.305Z,36.83
2022-12-11T10:54:39.503Z,23.52
2022-12-11T10:57:09.857Z,20.80
2022-12-11T10:59:42.926Z,23.13
2022-12-11T11:02:23.005Z,30.08
2022-12-11T11:04:53.110Z,27.55
2022-12-11T11:07:24.075Z,28.65
2022-12-11T11:10:07.000Z,32.03
2022-12-11T11:12:39.728Z,25.50
2022-12-11T11:15:13.618Z,16.65
2022-12-11T11:17:54.476Z,29.08
2022-12-11T11:20:26.770Z,22.80
2022-12-11T11:23:00.029Z,24.40
2022-12-11T11:25:32.612Z,23.80
2022-12-11T11:28:04.301Z,22.25
2022-12-11T11:30:35.288Z,26.63
2022-12-11T11:33:08.257Z,21.08
2022-12-11T11:35:39.020Z,24.40
2022-12-11T11:38:18.687Z,28.58
2022-12-11T11:40:59.396Z,27.13
2022-12-11T11:43:38.978Z,29.25
2022-12-11T11:46:13.268Z,56.85
2022-12-11T11:48:49.388Z,47.58
2022-12-11T11:51:24.080Z,31.23
2022-12-11T11:53:56.003Z,30.40
2022-12-11T11:56:28.882Z,24.25
2022-12-11T11:59:04.516Z,28.52
2022-12-11T12:01:33.668Z,30.10
2022-12-11T12:04:05.348Z,26.67
2022-12-11T12:06:52.256Z,24.65
2022-12-11T12:09:33.415Z,25.92
2022-12-11T12:12:12.401Z,25.65
2022-12-11T12:14:56.923Z,29.15
2022-12-11T12:17:38.498Z,34.42
2022-12-11T12:20:18.495Z,22.13
2022-12-11T12:22:58.688Z,25.90
2022-12-11T12:25:32.351Z,21.17
2022-12-11T12:28:12.957Z,22.30
2022-12-11T12:30:52.101Z,23.83
2022-12-11T12:33:32.351Z,21.25
2022-12-11T12:36:12.145Z,26.67
2022-12-11T12:38:48.548Z,27.23
2022-12-11T12:41:22.720Z,23.63
2022-12-11T12:44:09.572Z,21.45
2022-12-11T12:46:58.552Z,33.05
2022-12-11T12:49:35.642Z,31.73
2022-12-11T12:52:06.397Z,19.30
2022-12-11T12:54:37.571Z,22.55
2022-12-11T12:57:06.947Z,27.50
2022-12-11T12:59:36.574Z,26.15
2022-12-11T13:02:06.585Z,21.63
2022-12-11T13:04:55.588Z,21.35
2022-12-11T13:07:30.164Z,25.13
2022-12-11T13:10:06.717Z,33.20
2022-12-11T13:12:44.109Z,20.70
2022-12-11T13:15:35.781Z,24.13
2022-12-11T13:18:27.518Z,22.73
2022-12-11T13:20:57.884Z,21.63
2022-12-11T13:23:32.376Z,17.02
2022-12-11T13:26:02.523Z,24.25
2022-12-11T13:28:34.596Z,19.08
2022-12-11T13:31:26.151Z,23.90
2022-12-11T13:33:58.751Z,19.42
2022-12-11T13:36:32.782Z,27.00
2022-12-11T13:39:05.791Z,17.67
2022-12-11T13:41:37.734Z,21.20
2022-12-11T13:44:08.540Z,19.83
2022-12-11T13:46:39.311Z,23.10
2022-12-11T13:49:10.082Z,18.27
2022-12-11T13:51:40.363Z,20.70
2022-12-11T13:54:17.761Z,23.52
2022-12-11T13:57:00.771Z,22.23
2022-12-11T13:59:33.285Z,22.92
2022-12-11T14:02:06.377Z,18.45
2022-12-11T14:04:36.626Z,26.33
2022-12-11T14:07:10.895Z,22.20
2022-12-11T14:09:45.185Z,16.42
2022-12-11T14:12:22.141Z,31.15
2022-12-11T14:14:54.517Z,25.73
2022-12-11T14:17:27.870Z,28.55
2022-12-11T14:19:59.318Z,27.85
2022-12-11T14:22:31.576Z,20.73
2022-12-11T14:25:03.547Z,23.10
2022-12-11T14:27:32.243Z,26.58
2022-12-11T14:30:11.693Z,21.20
2022-12-11T14:32:46.663Z,22.70
2022-12-11T14:35:24.897Z,22.55
2022-12-11T14:37:56.215Z,23.25
2022-12-11T14:40:28.419Z,29.48
2022-12-11T14:43:00.574Z,23.10
2022-12-11T14:45:35.322Z,30.73
2022-12-11T14:48:11.476Z,25.55
2022-12-11T14:50:47.485Z,20.40
2022-12-11T14:53:20.964Z,26.05
2022-12-11T14:55:51.468Z,21.77
2022-12-11T14:58:23.172Z,21.52
2022-12-11T15:01:00.221Z,21.52
2022-12-11T15:03:34.340Z,27.95
2022-12-11T15:06:03.945Z,28.33
2022-12-11T15:08:36.904Z,19.67
2022-12-11T15:11:09.475Z,24.58
2022-12-11T15:13:40.795Z,22.30
2022-12-11T15:16:11.176Z,21.92
2022-12-11T15:18:42.964Z,25.67
2022-12-11T15:21:13.660Z,16.65
2022-12-11T15:23:52.730Z,22.95
2022-12-11T15:26:22.268Z,21.27
2022-12-11T15:29:02.393Z,28.98
2022-12-11T15:31:33.527Z,22.30
2022-12-11T15:34:04.594Z,30.48
2022-12-11T15:36:34.957Z,23.05
2022-12-11T15:39:08.605Z,18.27
2022-12-11T15:41:38.054Z,20.67
2022-12-11T15:44:19.916Z,20.52
2022-12-11T15:46:48.338Z,31.50
2022-12-11T15:49:16.778Z,20.35
2022-12-11T15:51:45.206Z,25.77
2022-12-11T15:54:14.854Z,27.65
2022-12-11T15:56:43.826Z,28.75
2022-12-11T15:59:12.806Z,37.83
2022-12-11T16:01:41.020Z,29.48
2022-12-11T16:04:09.538Z,17.00
2022-12-11T16:06:37.997Z,32.40
2022-12-11T16:09:07.039Z,36.50
2022-12-11T16:11:36.523Z,31.40
2022-12-11T16:14:05.091Z,28.83
2022-12-11T16:16:35.490Z,20.13
2022-12-11T16:19:03.693Z,19.58
2022-12-11T16:21:33.728Z,21.90
2022-12-11T16:24:01.891Z,23.88
2022-12-11T16:26:30.064Z,24.13
2022-12-11T16:28:59.770Z,31.85
2022-12-11T16:31:28.322Z,24.70
2022-12-11T16:33:56.681Z,17.13
2022-12-11T16:36:25.305Z,20.23
2022-12-11T16:38:54.465Z,19.42
2022-12-11T16:41:23.990Z,20.38
2022-12-11T16:43:52.946Z,23.88
2022-12-11T16:46:24.090Z,28.65
2022-12-11T16:48:52.322Z,38.30
2022-12-11T16:51:20.632Z,33.95
2022-12-11T16:53:51.809Z,25.13
2022-12-11T16:56:22.661Z,29.98
2022-12-11T16:58:50.802Z,28.23
2022-12-11T17:01:19.307Z,18.23
2022-12-11T17:03:49.469Z,17.03
2022-12-11T17:06:18.982Z,26.10
2022-12-11T17:08:48.045Z,21.95
2022-12-11T17:11:19.504Z,22.92
2022-12-11T17:13:47.955Z,23.55
2022-12-11T17:16:17.756Z,19.73
2022-12-11T17:18:47.806Z,43.78
2022-12-11T17:21:22.665Z,40.28
2022-12-11T17:23:52.032Z,38.08
2022-12-11T17:28:49.586Z,32.83
2022-12-11T17:31:20.386Z,29.92
2022-12-11T17:33:49.643Z,27.08
2022-12-11T17:36:21.698Z,23.63
2022-12-11T17:38:50.791Z,24.80
2022-12-11T17:41:21.175Z,29.00
2022-12-11T17:43:50.371Z,24.55
2022-12-11T17:46:19.520Z,32.65
2022-12-11T17:48:47.974Z,26.92
2022-12-11T17:51:21.811Z,25.60
2022-12-11T17:53:52.646Z,18.55
2022-12-11T17:56:21.025Z,24.40
2022-12-11T17:58:49.497Z,27.48
2022-12-11T18:01:18.587Z,21.33
2022-12-11T18:03:47.671Z,24.25
2022-12-11T18:06:17.349Z,27.77
2022-12-11T18:08:46.728Z,26.20
2022-12-11T18:11:18.685Z,31.92
2022-12-11T18:13:50.431Z,24.73
2022-12-11T18:16:21.116Z,31.27
2022-12-11T18:18:50.347Z,18.75
2022-12-11T18:23:51.213Z,32.17
2022-12-11T18:28:51.463Z,19.70
2022-12-11T18:31:21.344Z,21.60
2022-12-11T18:33:50.320Z,20.10
2022-12-11T18:36:21.191Z,22.00
2022-12-11T18:38:49.826Z,24.33
2022-12-11T18:41:20.374Z,9.15
2022-12-11T18:43:49.063Z,22.40
2022-12-11T18:46:21.084Z,20.85
2022-12-11T18:48:49.941Z,15.63
2022-12-11T18:51:22.729Z,18.05
2022-12-11T18:53:51.738Z,16.58
2022-12-11T18:56:22.604Z,14.40
2022-12-11T18:58:52.208Z,17.45
2022-12-11T19:01:23.045Z,27.97
2022-12-11T19:03:51.808Z,22.02
2022-12-11T19:06:24.387Z,13.57
2022-12-11T19:08:53.212Z,16.38
2022-12-11T19:11:26.491Z,14.10
2022-12-11T19:13:57.195Z,17.42
2022-12-11T19:16:29.748Z,13.93
2022-12-11T19:18:58.981Z,18.13
2022-12-11T19:21:28.411Z,23.83
2022-12-11T19:23:57.170Z,18.95
2022-12-11T19:26:27.102Z,17.52
2022-12-11T19:28:59.954Z,17.38
2022-12-11T19:31:30.590Z,20.58
2022-12-11T19:33:59.802Z,21.38
2022-12-11T19:36:30.776Z,18.80
2022-12-11T19:39:02.273Z,19.88
2022-12-11T19:41:34.429Z,14.35
2022-12-11T19:44:02.977Z,14.85
2022-12-11T19:46:32.089Z,19.37
2022-12-11T19:49:01.388Z,15.90
2022-12-11T19:51:33.677Z,13.48
2022-12-11T19:54:03.575Z,16.83
2022-12-11T19:56:34.300Z,11.70
2022-12-11T19:59:03.721Z,20.08
2022-12-11T20:01:36.586Z,20.45
2022-12-11T20:04:07.788Z,21.67
2022-12-11T20:06:38.083Z,18.55
2022-12-11T20:09:11.093Z,9.05
2022-12-11T20:11:45.696Z,15.55
2022-12-11T20:14:20.454Z,15.02
2022-12-11T20:19:37.409Z,17.45
2022-12-11T20:22:06.166Z,13.32
2022-12-11T20:24:34.954Z,10.93
2022-12-11T20:27:06.516Z,19.33
2022-12-11T20:29:35.208Z,14.85
2022-12-11T20:32:03.548Z,17.02
2022-12-11T20:34:31.823Z,18.75
2022-12-11T20:37:00.809Z,10.90
2022-12-11T20:39:29.205Z,16.90
2022-12-11T20:41:57.364Z,12.30
2022-12-11T20:44:27.383Z,16.35
2022-12-11T20:46:56.203Z,14.15
2022-12-11T20:49:24.526Z,25.10
2022-12-11T20:51:53.032Z,13.20
2022-12-11T20:54:21.182Z,14.93
2022-12-11T20:56:49.633Z,16.27
2022-12-11T20:59:17.791Z,15.43
2022-12-11T21:01:47.383Z,13.30
2022-12-11T21:04:15.639Z,13.68
2022-12-11T21:06:45.339Z,13.68
2022-12-11T21:14:11.943Z,12.02
2022-12-11T21:16:40.522Z,13.88
2022-12-11T21:19:16.540Z,13.07
2022-12-11T21:21:46.218Z,17.77
2022-12-11T21:24:16.347Z,16.58
2022-12-11T21:26:44.958Z,19.08
2022-12-11T21:29:13.753Z,14.90
2022-12-11T21:31:42.461Z,12.00
2022-12-11T21:34:13.024Z,11.15
2022-12-11T21:36:41.497Z,12.95
2022-12-11T21:39:10.607Z,12.32
2022-12-11T21:41:39.250Z,12.40
2022-12-11T21:45:25.826Z,13.05
2022-12-11T21:46:57.910Z,12.48
2022-12-11T21:51:56.331Z,17.98
2022-12-11T21:54:24.805Z,21.25
2022-12-11T21:56:54.427Z,20.10
2022-12-11T22:01:52.576Z,12.68
2022-12-11T22:04:21.032Z,16.23
2022-12-11T22:06:51.997Z,19.65
2022-12-11T22:09:20.682Z,24.83
2022-12-11T22:11:50.625Z,22.75
2022-12-11T22:14:23.528Z,20.35
2022-12-11T22:19:20.381Z,21.13
2022-12-11T22:21:50.805Z,19.38
2022-12-11T22:24:20.637Z,17.70
2022-12-11T22:26:49.117Z,21.20
2022-12-11T22:29:17.449Z,15.52
2022-12-11T22:31:45.896Z,16.83
2022-12-11T22:34:15.268Z,16.83
2022-12-11T22:36:43.440Z,20.73
2022-12-11T22:39:15.171Z,20.90
2022-12-11T22:41:43.446Z,20.08
2022-12-11T22:44:15.754Z,16.67
2022-12-11T22:46:50.008Z,23.08
2022-12-11T22:49:19.796Z,15.20
2022-12-11T22:51:50.409Z,18.83
2022-12-11T22:54:21.329Z,20.88
2022-12-11T22:56:49.963Z,17.85
2022-12-11T22:59:18.471Z,22.45
2022-12-11T23:01:46.629Z,20.90
2022-12-11T23:04:14.748Z,21.73
2022-12-11T23:06:44.643Z,20.95
2022-12-11T23:09:12.957Z,14.57
2022-12-11T23:11:43.090Z,19.15
2022-12-11T23:14:15.911Z,14.90
2022-12-11T23:16:45.444Z,17.80
2022-12-11T23:19:14.488Z,23.40
2022-12-11T23:21:45.511Z,24.38
2022-12-11T23:24:14.186Z,17.45
2022-12-11T23:26:44.272Z,25.65
2022-12-11T23:29:12.774Z,21.45
2022-12-11T23:31:41.357Z,16.52
2022-12-11T23:34:10.186Z,22.48
2022-12-11T23:36:39.139Z,18.80
2022-12-11T23:39:09.280Z,18.63
2022-12-11T23:41:38.243Z,18.92
2022-12-11T23:44:08.036Z,12.20
2022-12-11T23:46:37.098Z,18.95
2022-12-11T23:49:05.766Z,20.48
2022-12-11T23:51:35.930Z,22.17
2022-12-11T23:54:04.151Z,25.30
2022-12-11T23:56:32.313Z,26.90
2022-12-11T23:59:00.713Z,18.77
